createdAt,value
2022-12-28T00:01:18.624Z,38.98
2022-12-28T00:03:48.218Z,38.83
2022-12-28T00:06:16.611Z,38.67
2022-12-28T00:08:44.745Z,39.08
2022-12-28T00:11:20.326Z,39.03
2022-12-28T00:13:55.172Z,38.76
2022-12-28T00:16:26.263Z,39.58
2022-12-28T00:18:56.002Z,39.09
2022-12-28T00:21:24.072Z,39.30
2022-12-28T00:23:52.339Z,39.39
2022-12-28T00:26:20.554Z,39.58
2022-12-28T00:28:48.677Z,39.36
2022-12-28T00:31:17.018Z,39.23
2022-12-28T00:33:45.338Z,39.28
2022-12-28T00:36:15.371Z,39.07
2022-12-28T00:38:43.560Z,39.32
2022-12-28T00:41:11.764Z,39.75
2022-12-28T00:43:39.909Z,39.18
2022-12-28T00:46:08.064Z,39.20
2022-12-28T00:48:36.230Z,39.27
2022-12-28T00:51:04.872Z,39.01
2022-12-28T00:53:34.382Z,39.69
2022-12-28T00:56:07.170Z,39.09
2022-12-28T00:58:35.486Z,39.24
2022-12-28T01:01:03.776Z,39.81
2022-12-28T01:03:32.137Z,39.57
2022-12-28T01:06:00.440Z,39.91
2022-12-28T01:08:28.517Z,39.65
2022-12-28T01:10:58.023Z,40.02
2022-12-28T01:13:26.431Z,39.30
2022-12-28T01:15:54.558Z,39.66
2022-12-28T01:18:22.689Z,39.67
2022-12-28T01:20:50.943Z,40.02
2022-12-28T01:23:19.051Z,40.08
2022-12-28T01:25:47.199Z,40.02
2022-12-28T01:28:16.701Z,39.84
2022-12-28T01:30:45.209Z,40.18
2022-12-28T01:33:13.319Z,39.72
2022-12-28T01:35:41.449Z,39.66
2022-12-28T01:38:09.505Z,39.48
2022-12-28T01:40:38.079Z,39.51
2022-12-28T01:43:08.465Z,39.59
2022-12-28T01:45:37.960Z,39.59
2022-12-28T01:48:06.343Z,39.47
2022-12-28T01:50:34.742Z,40.17
2022-12-28T01:53:03.830Z,39.75
2022-12-28T01:55:32.542Z,39.90
2022-12-28T01:58:02.243Z,40.15
2022-12-28T02:00:30.484Z,39.76
2022-12-28T02:03:00.556Z,40.03
2022-12-28T02:05:30.663Z,40.13
2022-12-28T02:08:01.135Z,39.47
2022-12-28T02:10:44.226Z,39.87
2022-12-28T02:13:14.578Z,39.81
2022-12-28T02:15:42.690Z,39.79
2022-12-28T02:18:12.152Z,39.89
2022-12-28T02:20:44.155Z,39.62
2022-12-28T02:23:37.867Z,39.98
2022-12-28T02:26:34.335Z,40.11
2022-12-28T02:29:22.355Z,40.24
2022-12-28T02:31:53.964Z,39.65
2022-12-28T02:34:25.341Z,39.85
2022-12-28T02:36:55.400Z,39.68
2022-12-28T02:39:24.502Z,40.02
2022-12-28T02:41:52.572Z,40.42
2022-12-28T02:44:35.871Z,40.26
2022-12-28T02:47:21.247Z,39.83
2022-12-28T02:50:09.100Z,40.09
2022-12-28T02:52:45.894Z,39.66
2022-12-28T02:55:40.439Z,40.19
2022-12-28T02:58:17.459Z,40.43
2022-12-28T03:00:54.389Z,40.37
2022-12-28T03:03:22.988Z,40.25
2022-12-28T03:06:17.575Z,40.11
2022-12-28T03:08:57.579Z,39.90
2022-12-28T03:11:30.687Z,39.78
2022-12-28T03:14:00.974Z,40.26
2022-12-28T03:16:34.013Z,39.87
2022-12-28T03:19:22.256Z,39.93
2022-12-28T03:22:08.208Z,40.38
2022-12-28T03:24:54.079Z,40.14
2022-12-28T03:27:42.967Z,40.35
2022-12-28T03:30:31.496Z,39.81
2022-12-28T03:33:01.643Z,40.37
2022-12-28T03:35:36.295Z,39.92
2022-12-28T03:38:04.559Z,40.23
2022-12-28T03:40:35.360Z,39.89
2022-12-28T03:43:23.105Z,40.05
2022-12-28T03:45:53.397Z,39.99
2022-12-28T03:48:23.552Z,40.27
2022-12-28T03:50:52.517Z,40.16
2022-12-28T03:53:22.808Z,40.38
2022-12-28T03:55:53.935Z,40.58
2022-12-28T03:58:22.066Z,39.82
2022-12-28T04:00:51.339Z,39.98
2022-12-28T04:03:24.714Z,40.27
2022-12-28T04:05:52.960Z,40.55
2022-12-28T04:08:21.449Z,40.36
2022-12-28T04:10:49.688Z,40.27
2022-12-28T04:13:17.870Z,40.12
2022-12-28T04:15:59.291Z,40.29
2022-12-28T04:18:29.826Z,40.57
2022-12-28T04:20:58.067Z,40.58
2022-12-28T04:23:26.202Z,39.62
2022-12-28T04:26:07.882Z,39.95
2022-12-28T04:28:36.165Z,40.37
2022-12-28T04:31:30.220Z,40.42
2022-12-28T04:34:06.293Z,40.38
2022-12-28T04:36:39.412Z,40.62
2022-12-28T04:39:12.170Z,40.18
2022-12-28T04:41:41.235Z,40.56
2022-12-28T04:44:09.318Z,39.86
2022-12-28T04:46:37.410Z,40.17
2022-12-28T04:49:06.988Z,40.54
2022-12-28T04:51:35.387Z,40.73
2022-12-28T04:54:03.707Z,39.68
2022-12-28T04:56:31.813Z,40.17
2022-12-28T04:59:01.076Z,40.54
2022-12-28T05:01:29.348Z,40.06
2022-12-28T05:03:59.779Z,40.06
2022-12-28T05:06:29.615Z,39.87
2022-12-28T05:08:57.826Z,40.57
2022-12-28T05:11:27.648Z,39.91
2022-12-28T05:13:55.882Z,40.18
2022-12-28T05:16:25.014Z,40.63
2022-12-28T05:18:53.251Z,40.41
2022-12-28T05:21:22.548Z,40.09
2022-12-28T05:23:52.197Z,39.89
2022-12-28T05:26:22.861Z,40.56
2022-12-28T05:28:51.042Z,40.66
2022-12-28T05:31:20.599Z,40.29
2022-12-28T05:33:48.819Z,40.59
2022-12-28T05:36:17.786Z,40.52
2022-12-28T05:38:45.967Z,40.53
2022-12-28T05:41:16.120Z,40.40
2022-12-28T05:43:44.382Z,40.40
2022-12-28T05:46:13.394Z,40.19
2022-12-28T05:48:42.053Z,39.92
2022-12-28T05:51:10.965Z,39.82
2022-12-28T05:53:39.312Z,39.95
2022-12-28T05:56:12.147Z,40.61
2022-12-28T05:58:43.705Z,39.76
2022-12-28T06:01:12.705Z,39.92
2022-12-28T06:03:41.345Z,40.14
2022-12-28T06:06:10.500Z,40.45
2022-12-28T06:08:38.724Z,39.80
2022-12-28T06:11:07.804Z,40.53
2022-12-28T06:13:35.891Z,40.42
2022-12-28T06:16:08.433Z,39.83
2022-12-28T06:18:36.674Z,40.35
2022-12-28T06:21:05.695Z,40.01
2022-12-28T06:23:33.911Z,40.08
2022-12-28T06:26:02.323Z,40.11
2022-12-28T06:28:30.402Z,40.21
2022-12-28T06:31:04.918Z,40.12
2022-12-28T06:33:34.583Z,40.44
2022-12-28T06:36:02.685Z,39.91
2022-12-28T06:38:32.627Z,40.04
2022-12-28T06:41:13.513Z,39.82
2022-12-28T06:43:43.089Z,39.85
2022-12-28T06:46:11.395Z,40.34
2022-12-28T06:48:40.976Z,40.38
2022-12-28T06:51:09.874Z,39.54
2022-12-28T06:53:38.463Z,40.27
2022-12-28T06:56:07.900Z,39.55
2022-12-28T06:58:35.973Z,39.76
2022-12-28T07:01:07.592Z,39.39
2022-12-28T07:03:35.766Z,39.44
2022-12-28T07:06:05.556Z,39.58
2022-12-28T07:08:33.660Z,39.10
2022-12-28T07:11:05.248Z,38.70
2022-12-28T07:13:33.497Z,38.68
2022-12-28T07:16:03.619Z,39.13
2022-12-28T07:18:31.819Z,38.51
2022-12-28T07:21:01.157Z,38.40
2022-12-28T07:23:31.511Z,38.66
2022-12-28T07:26:00.027Z,38.37
2022-12-28T07:28:28.072Z,38.45
2022-12-28T07:30:56.194Z,38.45
2022-12-28T07:33:24.240Z,38.61
2022-12-28T07:35:52.348Z,38.42
2022-12-28T07:38:21.646Z,38.10
2022-12-28T07:40:51.314Z,38.36
2022-12-28T07:43:19.400Z,38.36
2022-12-28T07:45:47.556Z,37.74
2022-12-28T07:48:15.741Z,37.68
2022-12-28T07:50:43.917Z,38.19
2022-12-28T07:53:12.495Z,37.91
2022-12-28T07:55:43.593Z,38.21
2022-12-28T07:58:13.067Z,37.44
2022-12-28T08:00:41.131Z,38.17
2022-12-28T08:03:09.319Z,37.36
2022-12-28T08:05:37.373Z,37.99
2022-12-28T08:08:05.673Z,37.18
2022-12-28T08:10:34.373Z,37.08
2022-12-28T08:13:02.531Z,36.47
2022-12-28T08:15:32.124Z,37.08
2022-12-28T08:18:00.176Z,37.64
2022-12-28T08:20:28.283Z,37.27
2022-12-28T08:22:56.367Z,37.55
2022-12-28T08:25:24.485Z,37.80
2022-12-28T08:27:52.546Z,37.81
2022-12-28T08:30:20.718Z,38.07
2022-12-28T08:32:50.302Z,37.89
2022-12-28T08:35:18.635Z,37.84
2022-12-28T08:37:46.890Z,37.84
2022-12-28T08:40:14.936Z,38.24
2022-12-28T08:42:43.084Z,38.42
2022-12-28T08:45:12.426Z,38.05
2022-12-28T08:47:40.627Z,38.79
2022-12-28T08:50:12.359Z,38.82
2022-12-28T08:52:41.113Z,38.02
2022-12-28T08:55:10.101Z,38.48
2022-12-28T08:57:38.381Z,38.33
2022-12-28T09:00:07.398Z,38.96
2022-12-28T09:02:35.984Z,38.71
2022-12-28T09:05:04.175Z,38.93
2022-12-28T09:07:33.706Z,38.66
2022-12-28T09:10:01.912Z,38.93
2022-12-28T09:12:30.027Z,39.11
2022-12-28T09:14:58.179Z,38.67
2022-12-28T09:17:26.226Z,38.75
2022-12-28T09:19:54.368Z,38.83
2022-12-28T09:22:22.962Z,38.83
2022-12-28T09:24:52.543Z,39.25
2022-12-28T09:27:20.685Z,39.25
2022-12-28T09:29:49.053Z,39.05
2022-12-28T09:32:17.201Z,38.85
2022-12-28T09:34:45.304Z,38.87
2022-12-28T09:37:13.409Z,38.98
2022-12-28T09:39:41.548Z,38.60
2022-12-28T09:42:13.906Z,38.96
2022-12-28T09:44:56.614Z,38.82
2022-12-28T09:47:28.274Z,38.49
2022-12-28T09:50:07.590Z,38.66
2022-12-28T09:52:36.481Z,38.64
2022-12-28T09:55:11.830Z,39.16
2022-12-28T09:57:43.702Z,39.23
2022-12-28T10:00:17.513Z,39.31
2022-12-28T10:02:46.847Z,38.68
2022-12-28T10:05:14.991Z,38.69
2022-12-28T10:07:43.176Z,39.30
2022-12-28T10:10:14.175Z,38.95
2022-12-28T10:12:44.439Z,39.29
2022-12-28T10:15:13.832Z,38.72
2022-12-28T10:17:41.995Z,39.24
2022-12-28T10:20:15.823Z,39.51
2022-12-28T10:22:49.842Z,38.97
2022-12-28T10:25:19.424Z,39.27
2022-12-28T10:27:48.868Z,39.54
2022-12-28T10:30:18.538Z,39.96
2022-12-28T10:32:51.133Z,40.01
2022-12-28T10:35:23.995Z,40.06
2022-12-28T10:37:52.117Z,40.19
2022-12-28T10:40:23.820Z,39.84
2022-12-28T10:42:54.693Z,40.12
2022-12-28T10:45:23.845Z,39.52
2022-12-28T10:47:52.453Z,39.32
2022-12-28T10:50:41.152Z,39.97
2022-12-28T10:53:17.742Z,39.88
2022-12-28T10:55:45.899Z,39.66
2022-12-28T10:58:30.775Z,39.21
2022-12-28T11:01:00.737Z,39.73
2022-12-28T11:03:29.717Z,39.37
2022-12-28T11:06:11.291Z,38.99
2022-12-28T11:08:39.776Z,39.18
2022-12-28T11:11:07.854Z,39.22
2022-12-28T11:13:37.296Z,38.83
2022-12-28T11:16:08.075Z,39.08
2022-12-28T11:18:38.108Z,39.51
2022-12-28T11:21:06.704Z,39.03
2022-12-28T11:23:35.613Z,38.63
2022-12-28T11:26:03.812Z,39.25
2022-12-28T11:28:31.890Z,39.24
2022-12-28T11:31:01.489Z,38.43
2022-12-28T11:33:33.263Z,38.62
2022-12-28T11:36:05.567Z,38.56
2022-12-28T11:38:40.027Z,38.97
2022-12-28T11:41:08.150Z,38.84
2022-12-28T11:43:57.391Z,38.58
2022-12-28T11:46:55.886Z,38.30
2022-12-28T11:49:29.279Z,38.90
2022-12-28T11:52:34.273Z,38.81
2022-12-28T11:55:02.879Z,38.87
2022-12-28T11:57:35.086Z,38.46
2022-12-28T12:00:40.160Z,38.30
2022-12-28T12:03:09.685Z,39.02
2022-12-28T12:05:53.245Z,38.40
2022-12-28T12:08:41.447Z,38.91
2022-12-28T12:11:22.975Z,38.34
2022-12-28T12:13:51.042Z,38.66
2022-12-28T12:16:22.965Z,38.77
2022-12-28T12:18:53.637Z,38.74
2022-12-28T12:21:25.675Z,38.57
2022-12-28T12:23:55.302Z,38.86
2022-12-28T12:26:28.174Z,38.47
2022-12-28T12:28:57.469Z,38.77
2022-12-28T12:31:29.888Z,38.97
2022-12-28T12:34:04.163Z,39.05
2022-12-28T12:37:00.558Z,38.82
2022-12-28T12:39:36.366Z,38.81
2022-12-28T12:42:09.643Z,38.83
2022-12-28T12:44:41.055Z,38.95
2022-12-28T12:47:47.997Z,39.18
2022-12-28T12:50:25.026Z,38.81
2022-12-28T12:52:55.962Z,38.58
2022-12-28T12:55:31.292Z,39.08
2022-12-28T12:58:02.265Z,38.80
2022-12-28T13:00:33.932Z,38.78
2022-12-28T13:03:11.090Z,38.76
2022-12-28T13:05:41.807Z,39.06
2022-12-28T13:08:17.091Z,38.83
2022-12-28T13:10:45.429Z,38.42
2022-12-28T13:13:19.251Z,38.90
2022-12-28T13:15:47.439Z,39.00
2022-12-28T13:18:44.045Z,38.58
2022-12-28T13:21:12.642Z,37.92
2022-12-28T13:23:44.031Z,38.06
2022-12-28T13:26:12.138Z,38.47
2022-12-28T13:28:40.227Z,38.18
2022-12-28T13:31:10.983Z,38.28
2022-12-28T13:33:39.162Z,38.39
2022-12-28T13:36:20.993Z,37.82
2022-12-28T13:38:49.123Z,38.24
2022-12-28T13:41:22.469Z,38.34
2022-12-28T13:44:23.714Z,37.84
2022-12-28T13:46:54.377Z,38.64
2022-12-28T13:49:22.560Z,38.64
2022-12-28T13:51:53.767Z,38.58
2022-12-28T13:54:24.423Z,38.16
2022-12-28T13:56:52.627Z,38.68
2022-12-28T13:59:21.021Z,38.09
2022-12-28T14:01:50.299Z,38.79
2022-12-28T14:07:13.617Z,38.16
2022-12-28T14:09:41.724Z,38.55
2022-12-28T14:12:10.537Z,38.12
2022-12-28T14:14:38.572Z,38.53
2022-12-28T14:17:06.756Z,38.45
2022-12-28T14:19:35.037Z,38.29
2022-12-28T14:22:03.840Z,38.97
2022-12-28T14:24:35.314Z,38.34
2022-12-28T14:27:03.526Z,38.38
2022-12-28T14:29:33.276Z,38.80
2022-12-28T14:32:01.931Z,38.36
2022-12-28T14:34:31.232Z,38.75
2022-12-28T14:36:59.476Z,38.43
2022-12-28T14:39:30.361Z,38.04
2022-12-28T14:41:59.862Z,38.16
2022-12-28T14:44:29.819Z,37.87
2022-12-28T14:46:58.100Z,37.98
2022-12-28T14:49:35.474Z,37.17
2022-12-28T14:52:27.005Z,37.17
2022-12-28T14:54:55.586Z,37.77
2022-12-28T14:57:31.278Z,37.67
2022-12-28T15:00:01.125Z,37.65
2022-12-28T15:02:43.177Z,37.10
2022-12-28T15:05:37.190Z,37.18
2022-12-28T15:08:06.626Z,37.21
2022-12-28T15:10:36.886Z,37.17
2022-12-28T15:13:06.391Z,37.24
2022-12-28T15:15:34.593Z,37.43
2022-12-28T15:18:02.804Z,37.36
2022-12-28T15:20:30.957Z,37.34
2022-12-28T15:22:59.182Z,37.05
2022-12-28T15:25:27.257Z,36.93
2022-12-28T15:27:55.444Z,37.55
2022-12-28T15:30:29.196Z,37.19
2022-12-28T15:32:57.707Z,38.02
2022-12-28T15:35:25.887Z,37.65
2022-12-28T15:37:53.964Z,37.89
2022-12-28T15:40:22.126Z,37.14
2022-12-28T15:42:50.246Z,37.73
2022-12-28T15:45:18.478Z,37.22
2022-12-28T15:47:47.909Z,37.77
2022-12-28T15:50:16.086Z,37.62
2022-12-28T15:52:44.159Z,38.12
2022-12-28T15:55:12.370Z,37.75
2022-12-28T15:57:40.454Z,38.04
2022-12-28T16:00:09.651Z,38.57
2022-12-28T16:02:38.457Z,37.75
2022-12-28T16:05:08.800Z,37.71
2022-12-28T16:07:37.113Z,37.86
2022-12-28T16:10:05.839Z,37.78
2022-12-28T16:12:33.979Z,38.00
2022-12-28T16:15:02.078Z,38.21
2022-12-28T16:17:30.179Z,38.05
2022-12-28T16:19:58.444Z,38.30
2022-12-28T16:22:27.903Z,37.93
2022-12-28T16:24:55.991Z,38.24
2022-12-28T16:27:24.160Z,38.48
2022-12-28T16:29:58.367Z,38.29
2022-12-28T16:32:28.202Z,38.48
2022-12-28T16:34:56.363Z,38.69
2022-12-28T16:37:24.604Z,38.43
2022-12-28T16:39:54.127Z,38.37
2022-12-28T16:42:22.342Z,38.35
2022-12-28T16:44:50.983Z,38.55
2022-12-28T16:47:19.131Z,39.24
2022-12-28T16:49:47.225Z,39.22
2022-12-28T16:52:15.336Z,38.62
2022-12-28T16:54:43.402Z,39.08
2022-12-28T16:57:13.195Z,39.19
2022-12-28T16:59:41.403Z,38.86
2022-12-28T17:02:10.844Z,38.56
2022-12-28T17:04:39.071Z,38.86
2022-12-28T17:07:07.195Z,38.93
2022-12-28T17:09:35.740Z,38.22
2022-12-28T17:12:03.811Z,38.23
2022-12-28T17:14:38.058Z,38.18
2022-12-28T17:17:06.832Z,38.25
2022-12-28T17:19:35.574Z,38.44
2022-12-28T17:22:04.136Z,38.26
2022-12-28T17:24:32.447Z,38.36
2022-12-28T17:27:06.902Z,38.64
2022-12-28T17:29:38.241Z,38.55
2022-12-28T17:32:06.517Z,38.18
2022-12-28T17:34:34.774Z,38.15
2022-12-28T17:37:02.978Z,38.39
2022-12-28T17:39:36.024Z,38.41
2022-12-28T17:42:07.705Z,38.10
2022-12-28T17:44:37.300Z,38.26
2022-12-28T17:47:05.551Z,38.13
2022-12-28T17:49:33.627Z,38.28
2022-12-28T17:52:01.759Z,38.26
2022-12-28T17:54:29.823Z,38.35
2022-12-28T17:56:58.026Z,38.42
2022-12-28T17:59:26.121Z,37.74
2022-12-28T18:01:55.716Z,38.39
2022-12-28T18:04:23.897Z,38.56
2022-12-28T18:06:51.965Z,38.14
2022-12-28T18:09:27.171Z,38.13
2022-12-28T18:11:55.948Z,38.11
2022-12-28T18:14:24.115Z,38.03
2022-12-28T18:16:52.308Z,38.01
2022-12-28T18:19:21.967Z,38.13
2022-12-28T18:21:50.304Z,38.43
2022-12-28T18:24:20.912Z,38.09
2022-12-28T18:26:49.366Z,37.96
2022-12-28T18:29:17.472Z,38.17
2022-12-28T18:31:45.605Z,38.67
2022-12-28T18:34:13.748Z,38.20
2022-12-28T18:36:43.624Z,38.47
2022-12-28T18:39:11.759Z,38.50
2022-12-28T18:41:39.850Z,38.89
2022-12-28T18:44:08.013Z,38.83
2022-12-28T18:46:36.270Z,39.38
2022-12-28T18:49:04.447Z,39.42
2022-12-28T18:51:32.596Z,39.84
2022-12-28T18:54:02.121Z,39.45
2022-12-28T18:56:30.216Z,39.86
2022-12-28T18:58:59.002Z,39.94
2022-12-28T19:04:16.600Z,40.24
2022-12-28T19:06:45.254Z,40.47
2022-12-28T19:09:14.837Z,40.76
2022-12-28T19:11:44.005Z,40.23
2022-12-28T19:14:13.005Z,41.03
2022-12-28T19:16:41.058Z,41.07
2022-12-28T19:19:09.295Z,41.06
2022-12-28T19:21:37.992Z,41.78
2022-12-28T19:24:07.731Z,41.33
2022-12-28T19:26:37.318Z,41.77
2022-12-28T19:29:05.458Z,42.31
2022-12-28T19:31:33.713Z,42.26
2022-12-28T19:34:01.812Z,42.26
2022-12-28T19:36:29.837Z,42.20
2022-12-28T19:38:57.988Z,42.38
2022-12-28T19:41:26.147Z,42.38
2022-12-28T19:43:55.577Z,41.87
2022-12-28T19:46:30.647Z,42.13
2022-12-28T19:48:59.070Z,42.04
2022-12-28T19:51:30.544Z,41.67
2022-12-28T19:54:00.065Z,41.93
2022-12-28T19:56:28.370Z,42.17
2022-12-28T19:59:05.163Z,42.00
2022-12-28T20:01:34.477Z,41.62
2022-12-28T20:04:07.149Z,41.76
2022-12-28T20:06:40.432Z,41.78
2022-12-28T20:09:08.522Z,41.29
2022-12-28T20:11:36.754Z,41.70
2022-12-28T20:14:06.240Z,41.26
2022-12-28T20:16:35.717Z,41.53
2022-12-28T20:19:06.739Z,41.01
2022-12-28T20:21:35.165Z,41.45
2022-12-28T20:24:03.391Z,41.49
2022-12-28T20:26:31.515Z,41.26
2022-12-28T20:29:00.136Z,41.10
2022-12-28T20:31:29.965Z,40.74
2022-12-28T20:33:58.242Z,41.50
2022-12-28T20:36:27.525Z,41.35
2022-12-28T20:38:57.130Z,41.30
2022-12-28T20:41:43.306Z,40.93
2022-12-28T20:44:12.615Z,40.87
2022-12-28T20:46:42.946Z,40.88
2022-12-28T20:49:11.137Z,40.99
2022-12-28T20:51:39.211Z,41.24
2022-12-28T20:54:07.529Z,40.79
2022-12-28T20:56:38.424Z,41.02
2022-12-28T20:59:07.286Z,40.92
2022-12-28T21:01:35.660Z,40.53
2022-12-28T21:04:05.861Z,41.21
2022-12-28T21:06:34.076Z,41.05
2022-12-28T21:09:02.226Z,40.77
2022-12-28T21:11:31.169Z,41.20
2022-12-28T21:13:59.287Z,40.39
2022-12-28T21:16:27.632Z,40.52
2022-12-28T21:18:55.723Z,40.29
2022-12-28T21:21:25.254Z,40.57
2022-12-28T21:23:53.686Z,40.75
2022-12-28T21:26:21.913Z,39.88
2022-12-28T21:28:50.047Z,40.06
2022-12-28T21:31:18.176Z,39.96
2022-12-28T21:33:46.407Z,40.50
2022-12-28T21:36:15.275Z,40.24
2022-12-28T21:38:45.205Z,40.40
2022-12-28T21:41:14.304Z,40.47
2022-12-28T21:43:42.536Z,40.27
2022-12-28T21:46:13.053Z,40.60
2022-12-28T21:48:41.232Z,40.05
2022-12-28T21:51:31.218Z,39.93
2022-12-28T21:54:01.316Z,40.03
2022-12-28T21:56:29.560Z,40.12
2022-12-28T21:58:57.655Z,40.06
2022-12-28T22:01:43.721Z,40.58
2022-12-28T22:04:29.836Z,40.32
2022-12-28T22:06:57.888Z,39.96
2022-12-28T22:09:45.091Z,40.59
2022-12-28T22:12:30.340Z,40.49
2022-12-28T22:15:12.321Z,40.62
2022-12-28T22:17:40.471Z,40.40
2022-12-28T22:20:09.319Z,39.93
2022-12-28T22:22:37.489Z,40.24
2022-12-28T22:25:07.312Z,40.49
2022-12-28T22:27:35.424Z,40.13
2022-12-28T22:30:03.552Z,39.95
2022-12-28T22:32:31.622Z,40.47
2022-12-28T22:34:59.683Z,39.81
2022-12-28T22:37:27.855Z,39.69
2022-12-28T22:39:55.933Z,40.31
2022-12-28T22:42:25.424Z,40.48
2022-12-28T22:44:53.584Z,40.49
2022-12-28T22:47:21.731Z,40.24
2022-12-28T22:49:49.913Z,40.47
2022-12-28T22:52:18.035Z,39.94
2022-12-28T22:54:46.593Z,39.90
2022-12-28T22:57:14.745Z,40.35
2022-12-28T22:59:44.313Z,40.16
2022-12-28T23:02:12.650Z,40.09
2022-12-28T23:04:40.960Z,40.38
2022-12-28T23:07:09.091Z,40.05
2022-12-28T23:09:37.492Z,40.22
2022-12-28T23:12:05.717Z,40.15
2022-12-28T23:14:50.850Z,40.34
2022-12-28T23:17:20.359Z,40.00
2022-12-28T23:20:05.985Z,40.32
2022-12-28T23:22:52.558Z,40.33
2022-12-28T23:25:39.235Z,40.23
2022-12-28T23:28:09.810Z,40.04
2022-12-28T23:30:38.296Z,40.65
2022-12-28T23:33:07.780Z,40.06
2022-12-28T23:35:35.926Z,39.90
2022-12-28T23:38:03.988Z,39.96
2022-12-28T23:40:32.095Z,40.67
2022-12-28T23:43:00.275Z,40.62
2022-12-28T23:45:28.348Z,40.34
2022-12-28T23:47:56.468Z,40.06
2022-12-28T23:50:25.987Z,40.44
2022-12-28T23:52:54.151Z,40.53
2022-12-28T23:55:22.220Z,40.38
2022-12-28T23:57:50.390Z,40.16
